Time;durP1;ratioP1;P1;durP2;ratioP2;P2;SDS_P1;SDS_P2;PMS_P1;PMS_P2;Temp;Humidity;BMP_temperature;BMP_pressure;BME280_temperature;BME280_humidity;BME280_pressure;Samples;Min_cycle;Max_cycle;Signal;HPM_P1;HPM_P2
2022/11/28 00:02:11;;;;;;;5.93;3.10;;;;;;;-145.68;100.00;63218.00;10411564;28;20223;-60
2022/11/28 00:07:11;;;;;;;6.10;3.23;;;;;;;-145.68;100.00;63218.00;10411643;28;20792;-62
2022/11/28 00:12:12;;;;;;;7.00;3.33;;;;;;;-145.68;100.00;63218.00;10411302;28;20212;-59
2022/11/28 00:17:12;;;;;;;9.17;3.93;;;;;;;-145.68;100.00;63218.00;10411382;28;20188;-62
2022/11/28 00:22:12;;;;;;;10.63;3.60;;;;;;;-145.68;100.00;63218.00;10410543;28;20241;-60
2022/11/28 00:27:13;;;;;;;2.97;2.43;;;;;;;-145.68;100.00;63218.00;10411317;28;20216;-61
2022/11/28 00:32:13;;;;;;;9.07;4.13;;;;;;;-145.68;100.00;63218.00;10409212;28;20228;-61
2022/11/28 00:37:14;;;;;;;7.17;3.60;;;;;;;-145.68;100.00;63218.00;10410308;28;20203;-61
2022/11/28 00:42:15;;;;;;;6.10;3.30;;;;;;;-145.68;100.00;63218.00;10409470;28;20215;-61
2022/11/28 00:47:15;;;;;;;8.13;3.57;;;;;;;-145.68;100.00;63218.00;10408224;28;20286;-61
2022/11/28 00:52:16;;;;;;;7.67;3.00;;;;;;;-145.68;100.00;63218.00;10404275;28;20285;-61
2022/11/28 00:57:16;;;;;;;8.40;3.33;;;;;;;-145.68;100.00;63218.00;10409168;28;20199;-61
2022/11/28 01:02:16;;;;;;;8.13;3.20;;;;;;;-145.68;100.00;63218.00;10408699;28;20207;-61
2022/11/28 01:07:17;;;;;;;7.70;3.43;;;;;;;-145.68;100.00;63218.00;10407900;28;20220;-60
2022/11/28 01:12:17;;;;;;;5.27;2.67;;;;;;;-145.68;100.00;63218.00;10408186;28;20582;-61
2022/11/28 01:17:17;;;;;;;4.63;2.90;;;;;;;-145.68;100.00;63218.00;10407963;28;20598;-61
2022/11/28 01:22:18;;;;;;;6.30;2.83;;;;;;;-145.68;100.00;63218.00;10408084;28;20236;-60
2022/11/28 01:27:18;;;;;;;5.27;2.17;;;;;;;-145.68;100.00;63218.00;10408227;28;20228;-60
2022/11/28 01:32:19;;;;;;;5.87;2.27;;;;;;;-145.68;100.00;63218.00;10407367;28;20208;-58
2022/11/28 01:37:19;;;;;;;4.07;2.27;;;;;;;-145.68;100.00;63218.00;10408152;28;20200;-59
2022/11/28 01:42:19;;;;;;;3.77;2.27;;;;;;;-145.68;100.00;63218.00;10407119;28;20227;-57
2022/11/28 01:47:23;;;;;;;3.23;2.40;;;;;;;-145.68;100.00;63218.00;10406654;28;20216;-59
2022/11/28 01:52:24;;;;;;;4.03;2.27;;;;;;;-145.68;100.00;63218.00;10407052;28;20242;-61
2022/11/28 01:57:25;;;;;;;5.37;2.60;;;;;;;-145.68;100.00;63218.00;10407162;28;20320;-62
2022/11/28 02:02:31;;;;;;;7.50;3.73;;;;;;;-145.68;100.00;63218.00;10404780;28;20212;-62
2022/11/28 02:07:33;;;;;;;7.33;3.20;;;;;;;-145.68;100.00;63218.00;10388159;28;20224;-62
2022/11/28 02:12:51;;;;;;;5.83;2.87;;;;;;;-145.68;100.00;63218.00;10406200;28;20224;-61
2022/11/28 02:18:04;;;;;;;5.13;2.90;;;;;;;-145.68;100.00;63218.00;10388061;28;20303;-61
2022/11/28 02:23:48;;;;;;;5.63;3.47;;;;;;;-145.68;100.00;63218.00;10406043;28;20203;-61
2022/11/28 02:29:01;;;;;;;7.73;3.47;;;;;;;-145.68;100.00;63218.00;10392503;28;20228;-60
2022/11/28 02:34:07;;;;;;;8.13;2.70;;;;;;;-145.68;100.00;63218.00;10406045;28;20670;-59
2022/11/28 02:39:16;;;;;;;7.13;3.10;;;;;;;-145.68;100.00;63218.00;10388573;28;20745;-61
2022/11/28 02:44:22;;;;;;;10.47;3.73;;;;;;;-145.68;100.00;63218.00;10387855;28;20715;-59
2022/11/28 02:49:29;;;;;;;6.40;4.03;;;;;;;-145.68;100.00;63218.00;10388178;28;20239;-61
2022/11/28 02:54:30;;;;;;;6.17;3.87;;;;;;;-145.68;100.00;63218.00;10388025;28;20214;-63
2022/11/28 02:59:30;;;;;;;9.90;4.50;;;;;;;-145.68;100.00;63218.00;10413086;28;20285;-61
2022/11/28 03:04:46;;;;;;;6.40;3.53;;;;;;;-145.68;100.00;63218.00;10412862;28;20228;-63
2022/11/28 03:10:06;;;;;;;4.70;2.77;;;;;;;-145.68;100.00;63218.00;10390192;28;20625;-63
2022/11/28 03:15:07;;;;;;;8.87;4.00;;;;;;;-145.68;100.00;63218.00;10410825;28;20196;-61
2022/11/28 03:20:13;;;;;;;6.63;3.27;;;;;;;-145.68;100.00;63218.00;10394999;28;20232;-61
2022/11/28 03:25:24;;;;;;;7.17;3.80;;;;;;;-145.68;100.00;63218.00;10413166;28;20224;-62
2022/11/28 03:30:38;;;;;;;9.37;5.10;;;;;;;-145.68;100.00;63218.00;10412256;28;20365;-61
2022/11/28 03:35:43;;;;;;;9.67;4.70;;;;;;;-145.68;100.00;63218.00;10394778;28;20193;-62
2022/11/28 03:40:47;;;;;;;7.80;4.50;;;;;;;-145.68;100.00;63218.00;10393932;28;20213;-62
2022/11/28 03:45:50;;;;;;;12.43;4.77;;;;;;;-145.68;100.00;63218.00;10393986;28;20228;-62
2022/11/28 03:51:01;;;;;;;9.50;5.20;;;;;;;-145.68;100.00;63218.00;10394324;28;20213;-62
2022/11/28 03:56:11;;;;;;;9.63;3.80;;;;;;;-145.68;100.00;63218.00;10393476;28;20197;-62
2022/11/28 04:01:53;;;;;;;6.50;3.33;;;;;;;-145.68;100.00;63218.00;10393757;28;20256;-61
2022/11/28 04:07:10;;;;;;;11.80;5.13;;;;;;;-145.68;100.00;63218.00;10382814;28;20246;-61
2022/11/28 04:12:20;;;;;;;11.40;5.77;;;;;;;-145.68;100.00;63218.00;10385406;28;20211;-62
2022/11/28 04:17:34;;;;;;;12.57;6.07;;;;;;;-145.68;100.00;63218.00;10404434;28;20231;-62
2022/11/28 04:22:37;;;;;;;8.00;3.70;;;;;;;-145.68;100.00;63218.00;10405676;28;20239;-62
2022/11/28 04:27:40;;;;;;;14.03;6.00;;;;;;;-145.68;100.00;63218.00;10402759;28;20821;-62
2022/11/28 04:32:46;;;;;;;8.03;4.47;;;;;;;-145.68;100.00;63218.00;10384413;28;20212;-60
2022/11/28 04:37:47;;;;;;;9.60;4.07;;;;;;;-145.68;100.00;63218.00;10385529;28;20192;-59
2022/11/28 04:42:57;;;;;;;11.23;4.83;;;;;;;-145.68;100.00;63218.00;10384496;28;20721;-62
2022/11/28 04:47:57;;;;;;;7.70;5.10;;;;;;;-145.68;100.00;63218.00;10385786;28;20286;-60
2022/11/28 04:53:10;;;;;;;6.57;3.60;;;;;;;-145.68;100.00;63218.00;10402110;28;20286;-62
2022/11/28 04:58:15;;;;;;;7.03;4.07;;;;;;;-145.68;100.00;63218.00;10385541;28;20703;-61
2022/11/28 05:03:15;;;;;;;11.63;6.23;;;;;;;-145.68;100.00;63218.00;10388534;28;20197;-61
2022/11/28 05:08:17;;;;;;;11.93;6.37;;;;;;;-145.68;100.00;63218.00;10390158;28;20293;-61
2022/11/28 05:13:17;;;;;;;8.83;5.43;;;;;;;-145.68;100.00;63218.00;10391205;28;20232;-61
2022/11/28 05:18:17;;;;;;;8.60;5.07;;;;;;;-145.68;100.00;63218.00;10409562;28;20223;-59
2022/11/28 05:23:18;;;;;;;9.37;5.17;;;;;;;-145.68;100.00;63218.00;10449681;28;20187;-61
2022/11/28 05:28:18;;;;;;;9.57;5.50;;;;;;;-145.68;100.00;63218.00;10445998;28;20223;-60
2022/11/28 05:33:19;;;;;;;10.43;6.17;;;;;;;-145.68;100.00;63218.00;10446703;28;20188;-62
2022/11/28 05:38:19;;;;;;;10.57;6.73;;;;;;;-145.68;100.00;63218.00;10448941;28;20211;-61
2022/11/28 05:43:19;;;;;;;7.30;5.20;;;;;;;-145.68;100.00;63218.00;10449130;28;20195;-60
2022/11/28 05:48:20;;;;;;;11.50;6.73;;;;;;;-145.68;100.00;63218.00;10443321;28;20226;-59
2022/11/28 05:53:21;;;;;;;6.77;3.60;;;;;;;-145.68;100.00;63218.00;10409330;28;20211;-60
2022/11/28 05:58:21;;;;;;;9.93;5.77;;;;;;;-145.68;100.00;63218.00;10408070;28;20215;-60
2022/11/28 06:03:21;;;;;;;13.10;6.70;;;;;;;-145.68;100.00;63218.00;10418710;28;20265;-61
2022/11/28 06:08:22;;;;;;;6.97;4.43;;;;;;;-145.68;100.00;63218.00;10448144;28;20269;-61
2022/11/28 06:13:22;;;;;;;11.60;5.37;;;;;;;-145.68;100.00;63218.00;10448060;28;20196;-56
2022/11/28 06:18:23;;;;;;;11.60;5.43;;;;;;;-145.68;100.00;63218.00;10447917;28;20204;-62
2022/11/28 06:23:23;;;;;;;8.70;5.50;;;;;;;-145.68;100.00;63218.00;10448082;28;20572;-62
2022/11/28 06:28:24;;;;;;;7.47;5.40;;;;;;;-145.68;100.00;63218.00;10447737;28;20224;-63
2022/11/28 06:33:24;;;;;;;9.87;5.43;;;;;;;-145.68;100.00;63218.00;10447515;28;20187;-62
2022/11/28 06:38:24;;;;;;;9.77;5.70;;;;;;;-145.68;100.00;63218.00;10447611;28;20682;-61
2022/11/28 06:43:25;;;;;;;9.83;5.13;;;;;;;-145.68;100.00;63218.00;10447657;28;20210;-61
2022/11/28 06:48:26;;;;;;;10.93;6.43;;;;;;;-145.68;100.00;63218.00;10447902;28;20302;-61
2022/11/28 06:53:26;;;;;;;11.63;6.60;;;;;;;-145.68;100.00;63218.00;10419403;28;20274;-61
2022/11/28 06:58:26;;;;;;;12.27;7.60;;;;;;;-145.68;100.00;63218.00;10405767;28;20234;-61
2022/11/28 07:03:27;;;;;;;13.73;7.87;;;;;;;-145.68;100.00;63218.00;10404776;28;20195;-61
2022/11/28 07:08:29;;;;;;;11.93;7.43;;;;;;;-145.68;100.00;63218.00;10413165;28;20227;-60
2022/11/28 07:13:29;;;;;;;11.73;5.77;;;;;;;-145.68;100.00;63218.00;10434250;28;20279;-61
2022/11/28 07:18:30;;;;;;;12.50;8.07;;;;;;;-145.68;100.00;63218.00;10444393;28;20223;-61
2022/11/28 07:23:30;;;;;;;11.93;6.27;;;;;;;-145.68;100.00;63218.00;10446627;28;20196;-61
2022/11/28 07:28:31;;;;;;;10.47;6.17;;;;;;;-145.68;100.00;63218.00;10425546;28;20224;-61
2022/11/28 07:33:33;;;;;;;9.90;5.33;;;;;;;-145.68;100.00;63218.00;10399797;28;20197;-62
2022/11/28 07:38:33;;;;;;;8.80;5.63;;;;;;;-145.68;100.00;63218.00;10400793;28;20664;-61
2022/11/28 07:43:34;;;;;;;13.67;7.33;;;;;;;-145.68;100.00;63218.00;10398846;28;20298;-61
2022/11/28 07:48:34;;;;;;;13.33;6.93;;;;;;;-145.68;100.00;63218.00;10404988;28;20220;-60
2022/11/28 07:53:35;;;;;;;10.20;7.67;;;;;;;-145.68;100.00;63218.00;10407736;28;20682;-61
2022/11/28 07:58:37;;;;;;;12.37;7.47;;;;;;;-145.68;100.00;63218.00;10408117;28;20208;-55
2022/11/28 08:03:38;;;;;;;11.23;6.70;;;;;;;-145.68;100.00;63218.00;10420633;28;20199;-60
2022/11/28 08:08:38;;;;;;;13.47;7.57;;;;;;;-145.68;100.00;63218.00;10448656;28;20246;-58
2022/11/28 08:13:39;;;;;;;7.30;4.67;;;;;;;-145.68;100.00;63218.00;10448013;28;20199;-60
2022/11/28 08:18:40;;;;;;;9.73;4.97;;;;;;;-145.68;100.00;63218.00;10447765;28;20310;-60
2022/11/28 08:23:41;;;;;;;10.00;7.17;;;;;;;-145.68;100.00;63218.00;10447933;28;20207;-53
2022/11/28 08:28:41;;;;;;;12.57;7.83;;;;;;;-145.68;100.00;63218.00;10447882;28;20713;-60
2022/11/28 08:33:43;;;;;;;6.97;5.13;;;;;;;-145.68;100.00;63218.00;10444989;28;20187;-58
2022/11/28 08:38:45;;;;;;;9.23;5.43;;;;;;;-145.68;100.00;63218.00;10448103;28;20216;-62
2022/11/28 08:43:45;;;;;;;11.57;7.07;;;;;;;-145.68;100.00;63218.00;10404965;28;20200;-58
2022/11/28 08:48:47;;;;;;;10.57;7.03;;;;;;;-145.68;100.00;63218.00;10401113;28;20919;-61
2022/11/28 08:53:47;;;;;;;9.57;7.23;;;;;;;-145.68;100.00;63218.00;10401991;28;20197;-61
2022/11/28 08:58:48;;;;;;;9.23;4.90;;;;;;;-145.68;100.00;63218.00;10401542;28;20204;-61
2022/11/28 09:03:49;;;;;;;15.10;9.23;;;;;;;-145.68;100.00;63218.00;10399756;28;20192;-59
2022/11/28 09:08:50;;;;;;;12.53;8.23;;;;;;;-145.68;100.00;63218.00;10401209;28;20232;-60
2022/11/28 09:13:50;;;;;;;11.83;7.87;;;;;;;-145.68;100.00;63218.00;10400005;28;20196;-61
2022/11/28 09:18:51;;;;;;;16.30;7.50;;;;;;;-145.68;100.00;63218.00;10395515;28;20667;-62
2022/11/28 09:23:54;;;;;;;14.20;7.60;;;;;;;-145.68;100.00;63218.00;10359748;28;20208;-61
2022/11/28 09:28:54;;;;;;;13.57;8.33;;;;;;;-145.68;100.00;63218.00;10359177;28;20244;-62
2022/11/28 09:33:55;;;;;;;12.20;7.27;;;;;;;-145.68;100.00;63218.00;10359044;28;20282;-60
2022/11/28 09:38:58;;;;;;;11.67;7.30;;;;;;;-145.68;100.00;63218.00;10358650;28;20212;-60
2022/11/28 09:44:05;;;;;;;12.73;7.90;;;;;;;-145.68;100.00;63218.00;10358012;28;20205;-62
2022/11/28 09:49:40;;;;;;;8.17;4.93;;;;;;;-145.68;100.00;63218.00;10340462;28;20221;-60
2022/11/28 09:54:51;;;;;;;13.73;9.23;;;;;;;-145.68;100.00;63218.00;10340904;28;20193;-62
2022/11/28 09:59:51;;;;;;;12.87;7.80;;;;;;;-145.68;100.00;63218.00;10341355;28;20209;-63
2022/11/28 10:05:07;;;;;;;12.30;7.80;;;;;;;-145.68;100.00;63218.00;10354722;28;20232;-62
2022/11/28 10:10:38;;;;;;;8.03;5.37;;;;;;;-145.68;100.00;63218.00;10338727;28;20220;-63
2022/11/28 10:16:08;;;;;;;9.30;5.83;;;;;;;-145.68;100.00;63218.00;10358877;28;20231;-62
2022/11/28 10:21:21;;;;;;;11.60;6.87;;;;;;;-145.68;100.00;63218.00;10364528;28;20255;-62
2022/11/28 10:26:37;;;;;;;12.53;6.00;;;;;;;-145.68;100.00;63218.00;10397699;28;20278;-63
2022/11/28 10:31:40;;;;;;;13.23;8.50;;;;;;;-145.68;100.00;63218.00;10398186;28;20800;-60
2022/11/28 10:36:56;;;;;;;12.00;7.80;;;;;;;-145.68;100.00;63218.00;10399011;28;20188;-62
2022/11/28 10:42:12;;;;;;;11.57;7.23;;;;;;;-145.68;100.00;63218.00;10378355;28;20750;-62
2022/11/28 10:47:37;;;;;;;12.23;7.93;;;;;;;-145.68;100.00;63218.00;10381402;28;20216;-63
2022/11/28 10:52:44;;;;;;;10.33;6.57;;;;;;;-145.68;100.00;63218.00;10398335;28;20258;-61
2022/11/28 10:57:54;;;;;;;10.63;5.10;;;;;;;-145.68;100.00;63218.00;10380164;28;20285;-61
2022/11/28 11:02:56;;;;;;;12.33;5.77;;;;;;;-145.68;100.00;63218.00;10379603;28;20189;-61
2022/11/28 11:08:04;;;;;;;10.60;6.63;;;;;;;-145.68;100.00;63218.00;10405261;28;20593;-62
2022/11/28 11:13:19;;;;;;;11.87;6.73;;;;;;;-145.68;100.00;63218.00;10400024;28;20193;-62
2022/11/28 11:18:26;;;;;;;12.33;6.10;;;;;;;-145.68;100.00;63218.00;10408521;28;20203;-62
2022/11/28 11:23:28;;;;;;;11.93;6.53;;;;;;;-145.68;100.00;63218.00;10424584;28;20189;-61
2022/11/28 11:28:49;;;;;;;12.83;6.57;;;;;;;-145.68;100.00;63218.00;10407449;28;20290;-62
2022/11/28 11:33:52;;;;;;;10.53;5.93;;;;;;;-145.68;100.00;63218.00;10401049;28;20196;-61
2022/11/28 11:39:24;;;;;;;9.07;4.60;;;;;;;-145.68;100.00;63218.00;10411961;28;20212;-58
2022/11/28 11:44:33;;;;;;;10.27;4.90;;;;;;;-145.68;100.00;63218.00;10444154;28;20615;-61
2022/11/28 11:49:37;;;;;;;10.33;6.37;;;;;;;-145.68;100.00;63218.00;10404625;28;20259;-61
2022/11/28 11:54:39;;;;;;;11.43;7.00;;;;;;;-145.68;100.00;63218.00;10402178;28;20207;-61
2022/11/28 11:59:43;;;;;;;11.60;6.63;;;;;;;-145.68;100.00;63218.00;10404755;28;20212;-61
2022/11/28 12:04:45;;;;;;;13.27;8.10;;;;;;;-145.68;100.00;63218.00;10426004;28;20219;-62
2022/11/28 12:09:47;;;;;;;11.00;7.37;;;;;;;-145.68;100.00;63218.00;10443793;28;20754;-56
2022/11/28 12:14:48;;;;;;;10.83;6.33;;;;;;;-145.68;100.00;63218.00;10426640;28;20211;-55
2022/11/28 12:20:10;;;;;;;11.40;6.90;;;;;;;-145.68;100.00;63218.00;10429749;28;20248;-56
2022/11/28 12:25:43;;;;;;;12.40;6.47;;;;;;;-145.68;100.00;63218.00;10400754;28;20217;-54
2022/11/28 12:30:57;;;;;;;8.70;5.53;;;;;;;-145.68;100.00;63218.00;10401318;28;20638;-58
2022/11/28 12:36:03;;;;;;;16.83;8.37;;;;;;;-145.68;100.00;63218.00;10373910;28;20190;-60
2022/11/28 12:41:49;;;;;;;14.67;8.73;;;;;;;-145.68;100.00;63218.00;10360219;28;20302;-53
2022/11/28 12:46:57;;;;;;;15.30;8.93;;;;;;;-145.68;100.00;63218.00;10337510;28;20233;-57
2022/11/28 12:52:07;;;;;;;15.97;10.67;;;;;;;-145.68;100.00;63218.00;10359132;28;20232;-57
2022/11/28 12:57:42;;;;;;;18.53;9.73;;;;;;;-145.68;100.00;63218.00;10361499;28;20256;-58
2022/11/28 13:03:14;;;;;;;15.27;8.60;;;;;;;-145.68;100.00;63218.00;10374679;28;20216;-62
2022/11/28 13:08:26;;;;;;;18.07;9.13;;;;;;;-145.68;100.00;63218.00;10377494;28;20263;-57
2022/11/28 13:13:38;;;;;;;13.77;7.10;;;;;;;-145.68;100.00;63218.00;10372628;28;20273;-53
2022/11/28 13:18:40;;;;;;;13.30;7.67;;;;;;;-145.68;100.00;63218.00;10361370;28;20784;-61
2022/11/28 13:23:55;;;;;;;16.83;9.67;;;;;;;-145.68;100.00;63218.00;10397356;28;20200;-58
2022/11/28 13:29:31;;;;;;;18.33;9.53;;;;;;;-145.68;100.00;63218.00;10381809;28;20225;-59
2022/11/28 13:34:32;;;;;;;17.77;9.87;;;;;;;-145.68;100.00;63218.00;10399363;28;20299;-61
2022/11/28 13:39:47;;;;;;;20.63;10.13;;;;;;;-145.68;100.00;63218.00;10438333;28;20238;-60
2022/11/28 13:45:06;;;;;;;22.93;11.17;;;;;;;-145.68;100.00;63218.00;10413959;28;20234;-61
2022/11/28 13:50:24;;;;;;;22.50;13.30;;;;;;;-145.68;100.00;63218.00;10438185;28;20208;-62
2022/11/28 13:55:46;;;;;;;20.87;11.87;;;;;;;-145.68;100.00;63218.00;10438101;28;20207;-62
2022/11/28 14:01:09;;;;;;;28.33;15.37;;;;;;;-145.68;100.00;63218.00;10432073;28;20227;-63
2022/11/28 14:06:11;;;;;;;25.20;13.07;;;;;;;-145.68;100.00;63218.00;10438686;28;20594;-61
2022/11/28 14:11:49;;;;;;;23.10;12.63;;;;;;;-145.68;100.00;63218.00;10438238;28;20215;-62
2022/11/28 14:17:12;;;;;;;23.40;13.33;;;;;;;-145.68;100.00;63218.00;10438448;28;20196;-62
2022/11/28 14:22:32;;;;;;;28.10;14.03;;;;;;;-145.68;100.00;63218.00;10437377;28;20243;-62
2022/11/28 14:27:35;;;;;;;25.67;14.13;;;;;;;-145.68;100.00;63218.00;10438281;28;20223;-58
2022/11/28 14:32:37;;;;;;;17.87;10.03;;;;;;;-145.68;100.00;63218.00;10437725;28;20652;-62
2022/11/28 14:37:49;;;;;;;24.10;12.70;;;;;;;-145.68;100.00;63218.00;10437951;28;20188;-58
2022/11/28 14:43:28;;;;;;;23.00;12.10;;;;;;;-145.68;100.00;63218.00;10420220;28;20275;-63
2022/11/28 14:48:29;;;;;;;13.97;6.60;;;;;;;-145.68;100.00;63218.00;10411498;28;20686;-62
2022/11/28 14:53:33;;;;;;;19.57;9.30;;;;;;;-145.68;100.00;63218.00;10412335;28;20192;-62
2022/11/28 14:58:33;;;;;;;20.50;10.90;;;;;;;-145.68;100.00;63218.00;10412193;28;20296;-63
2022/11/28 15:03:54;;;;;;;16.33;9.43;;;;;;;-145.68;100.00;63218.00;10403741;28;20197;-59
2022/11/28 15:08:57;;;;;;;17.63;7.93;;;;;;;-145.68;100.00;63218.00;10406009;28;20235;-62
2022/11/28 15:14:08;;;;;;;13.07;6.07;;;;;;;-145.68;100.00;63218.00;10404540;28;20185;-62
2022/11/28 15:19:15;;;;;;;48.73;22.53;;;;;;;-145.68;100.00;63218.00;10380442;28;20714;-62
2022/11/28 15:24:23;;;;;;;33.90;17.73;;;;;;;-145.68;100.00;63218.00;10345779;28;20193;-62
2022/11/28 15:29:27;;;;;;;32.50;17.37;;;;;;;-145.68;100.00;63218.00;10345633;28;20225;-60
2022/11/28 15:34:29;;;;;;;26.83;14.27;;;;;;;-145.68;100.00;63218.00;10364031;28;20192;-62
2022/11/28 15:39:40;;;;;;;26.90;15.20;;;;;;;-145.68;100.00;63218.00;10364093;28;20211;-62
2022/11/28 15:44:42;;;;;;;24.00;13.20;;;;;;;-145.68;100.00;63218.00;10345620;28;20739;-62
2022/11/28 15:49:42;;;;;;;15.17;7.80;;;;;;;-145.68;100.00;63218.00;10356768;28;20224;-61
2022/11/28 15:54:43;;;;;;;18.87;10.70;;;;;;;-145.68;100.00;63218.00;10363184;28;20243;-63
2022/11/28 15:59:43;;;;;;;18.17;10.37;;;;;;;-145.68;100.00;63218.00;10353850;28;20704;-63
2022/11/28 16:04:44;;;;;;;19.10;11.10;;;;;;;-145.68;100.00;63218.00;10345752;28;20216;-62
2022/11/28 16:09:53;;;;;;;23.00;11.93;;;;;;;-145.68;100.00;63218.00;10402196;28;20227;-62
2022/11/28 16:14:57;;;;;;;14.60;6.73;;;;;;;-145.68;100.00;63218.00;10403172;28;20860;-62
2022/11/28 16:19:58;;;;;;;13.20;7.40;;;;;;;-145.68;100.00;63218.00;10416073;28;20373;-62
2022/11/28 16:25:31;;;;;;;14.87;8.63;;;;;;;-145.68;100.00;63218.00;10444458;28;20306;-62
2022/11/28 16:30:36;;;;;;;18.87;10.27;;;;;;;-145.68;100.00;63218.00;10442181;28;20635;-62
2022/11/28 16:35:40;;;;;;;21.00;9.47;;;;;;;-145.68;100.00;63218.00;10423250;28;20196;-62
2022/11/28 16:40:41;;;;;;;27.60;14.40;;;;;;;-145.68;100.00;63218.00;10398035;28;20219;-60
2022/11/28 16:45:41;;;;;;;23.37;13.97;;;;;;;-145.68;100.00;63218.00;10405776;28;20772;-60
2022/11/28 16:51:18;;;;;;;20.60;10.70;;;;;;;-145.68;100.00;63218.00;10405866;28;20215;-63
2022/11/28 16:56:29;;;;;;;23.40;9.90;;;;;;;-145.68;100.00;63218.00;10406272;28;20335;-60
2022/11/28 17:01:29;;;;;;;23.17;13.63;;;;;;;-145.68;100.00;63218.00;10404007;28;20235;-62
2022/11/28 17:06:36;;;;;;;20.53;10.57;;;;;;;-145.68;100.00;63218.00;10404184;28;20212;-62
2022/11/28 17:11:40;;;;;;;17.93;9.53;;;;;;;-145.68;100.00;63218.00;10402665;28;20216;-60
2022/11/28 17:16:41;;;;;;;19.90;11.03;;;;;;;-145.68;100.00;63218.00;10399881;28;20243;-62
2022/11/28 17:21:44;;;;;;;22.53;12.57;;;;;;;-145.68;100.00;63218.00;10400695;28;20227;-62
2022/11/28 17:26:45;;;;;;;19.53;8.90;;;;;;;-145.68;100.00;63218.00;10384597;28;20331;-63
2022/11/28 17:31:46;;;;;;;20.13;10.07;;;;;;;-145.68;100.00;63218.00;10403074;28;20288;-61
2022/11/28 17:36:46;;;;;;;26.57;11.67;;;;;;;-145.68;100.00;63218.00;10403104;28;20254;-62
2022/11/28 17:41:47;;;;;;;19.70;10.23;;;;;;;-145.68;100.00;63218.00;10400560;28;20706;-62
2022/11/28 17:46:49;;;;;;;24.43;13.87;;;;;;;-145.68;100.00;63218.00;10385411;28;20224;-60
2022/11/28 17:51:51;;;;;;;21.70;11.30;;;;;;;-145.68;100.00;63218.00;10401899;28;20710;-61
2022/11/28 17:56:52;;;;;;;20.07;10.87;;;;;;;-145.68;100.00;63218.00;10401698;28;20239;-62
2022/11/28 18:01:53;;;;;;;16.27;7.93;;;;;;;-145.68;100.00;63218.00;10385555;28;20628;-60
2022/11/28 18:06:57;;;;;;;21.20;10.10;;;;;;;-145.68;100.00;63218.00;10384652;28;20217;-58
2022/11/28 18:11:58;;;;;;;24.00;12.87;;;;;;;-145.68;100.00;63218.00;10401562;28;20220;-61
2022/11/28 18:16:59;;;;;;;18.00;9.77;;;;;;;-145.68;100.00;63218.00;10385884;28;20181;-62
2022/11/28 18:21:59;;;;;;;23.30;13.03;;;;;;;-145.68;100.00;63218.00;10402605;28;20645;-59
2022/11/28 18:27:00;;;;;;;20.40;9.93;;;;;;;-145.68;100.00;63218.00;10384394;28;20224;-62
2022/11/28 18:32:00;;;;;;;27.43;13.30;;;;;;;-145.68;100.00;63218.00;10385125;28;20211;-58
2022/11/28 18:37:01;;;;;;;21.13;10.40;;;;;;;-145.68;100.00;63218.00;10401539;28;20189;-60
2022/11/28 18:42:04;;;;;;;29.20;14.27;;;;;;;-145.68;100.00;63218.00;10387882;28;20314;-59
2022/11/28 18:47:05;;;;;;;24.07;12.33;;;;;;;-145.68;100.00;63218.00;10407046;28;20226;-61
2022/11/28 18:52:05;;;;;;;29.40;14.53;;;;;;;-145.68;100.00;63218.00;10405134;28;20216;-61
2022/11/28 18:57:06;;;;;;;27.80;15.43;;;;;;;-145.68;100.00;63218.00;10386564;28;20242;-62
2022/11/28 19:02:11;;;;;;;16.33;7.90;;;;;;;-145.68;100.00;63218.00;10405373;28;20309;-60
2022/11/28 19:07:11;;;;;;;23.37;12.30;;;;;;;-145.68;100.00;63218.00;10404464;28;20220;-62
2022/11/28 19:12:12;;;;;;;30.47;18.40;;;;;;;-145.68;100.00;63218.00;10405132;28;20211;-63
2022/11/28 19:17:12;;;;;;;30.63;15.17;;;;;;;-145.68;100.00;63218.00;10387452;28;20231;-62
2022/11/28 19:22:14;;;;;;;32.73;16.50;;;;;;;-145.68;100.00;63218.00;10405006;28;20307;-62
2022/11/28 19:27:14;;;;;;;35.40;16.57;;;;;;;-145.68;100.00;63218.00;10404234;28;20224;-62
2022/11/28 19:32:16;;;;;;;29.73;15.13;;;;;;;-145.68;100.00;63218.00;10386794;28;20624;-62
2022/11/28 19:37:17;;;;;;;23.07;12.33;;;;;;;-145.68;100.00;63218.00;10404824;28;20228;-62
2022/11/28 19:42:17;;;;;;;25.33;13.07;;;;;;;-145.68;100.00;63218.00;10393563;28;20208;-62
2022/11/28 19:47:18;;;;;;;34.67;12.50;;;;;;;-145.68;100.00;63218.00;10411940;28;20228;-61
2022/11/28 19:52:18;;;;;;;24.67;10.30;;;;;;;-145.68;100.00;63218.00;10390368;28;20220;-62
2022/11/28 19:57:19;;;;;;;34.40;16.10;;;;;;;-145.68;100.00;63218.00;10408392;28;20564;-58
2022/11/28 20:02:21;;;;;;;25.53;12.37;;;;;;;-145.68;100.00;63218.00;10398657;28;20214;-58
2022/11/28 20:07:22;;;;;;;29.77;15.00;;;;;;;-145.68;100.00;63218.00;10432960;28;20255;-60
2022/11/28 20:12:23;;;;;;;24.17;12.50;;;;;;;-145.68;100.00;63218.00;10434397;28;20220;-60
2022/11/28 20:17:24;;;;;;;20.93;10.33;;;;;;;-145.68;100.00;63218.00;10451188;28;20184;-59
2022/11/28 20:22:25;;;;;;;25.57;14.37;;;;;;;-145.68;100.00;63218.00;10451046;28;20231;-61
2022/11/28 20:27:25;;;;;;;25.10;14.07;;;;;;;-145.68;100.00;63218.00;10433457;28;20698;-61
2022/11/28 20:32:26;;;;;;;17.67;9.73;;;;;;;-145.68;100.00;63218.00;10433342;28;20209;-62
2022/11/28 20:37:27;;;;;;;18.27;8.47;;;;;;;-145.68;100.00;63218.00;10451173;28;20666;-61
2022/11/28 20:42:27;;;;;;;25.73;13.33;;;;;;;-145.68;100.00;63218.00;10451282;28;20231;-61
2022/11/28 20:47:28;;;;;;;19.93;10.73;;;;;;;-145.68;100.00;63218.00;10451564;28;20219;-62
2022/11/28 20:52:28;;;;;;;30.00;15.80;;;;;;;-145.68;100.00;63218.00;10450073;28;20215;-61
2022/11/28 20:57:28;;;;;;;20.37;10.80;;;;;;;-145.68;100.00;63218.00;10451021;28;20208;-61
2022/11/28 21:02:29;;;;;;;25.37;12.30;;;;;;;-145.68;100.00;63218.00;10450538;28;20222;-61
2022/11/28 21:07:30;;;;;;;21.40;11.63;;;;;;;-145.68;100.00;63218.00;10450179;28;20219;-62
2022/11/28 21:12:30;;;;;;;24.53;12.83;;;;;;;-145.68;100.00;63218.00;10450663;28;20265;-62
2022/11/28 21:17:31;;;;;;;29.60;17.37;;;;;;;-145.68;100.00;63218.00;10450349;28;20188;-62
2022/11/28 21:22:32;;;;;;;21.87;10.93;;;;;;;-145.68;100.00;63218.00;10449987;28;20794;-60
2022/11/28 21:27:34;;;;;;;22.60;11.40;;;;;;;-145.68;100.00;63218.00;10449315;28;20219;-60
2022/11/28 21:32:34;;;;;;;27.03;14.03;;;;;;;-145.68;100.00;63218.00;10449630;28;20247;-59
2022/11/28 21:37:34;;;;;;;21.57;12.50;;;;;;;-145.68;100.00;63218.00;10449541;28;20180;-59
2022/11/28 21:42:35;;;;;;;27.80;14.23;;;;;;;-145.68;100.00;63218.00;10448806;28;20216;-60
2022/11/28 21:47:35;;;;;;;15.20;8.07;;;;;;;-145.68;100.00;63218.00;10449203;28;20310;-58
2022/11/28 21:52:36;;;;;;;27.70;12.33;;;;;;;-145.68;100.00;63218.00;10448730;28;20208;-58
2022/11/28 21:57:36;;;;;;;24.53;13.47;;;;;;;-145.68;100.00;63218.00;10449150;28;20176;-58
2022/11/28 22:02:37;;;;;;;20.13;12.90;;;;;;;-145.68;100.00;63218.00;10429329;28;20281;-58
2022/11/28 22:07:38;;;;;;;22.67;13.47;;;;;;;-145.68;100.00;63218.00;10448305;28;20364;-60
2022/11/28 22:12:38;;;;;;;15.23;9.13;;;;;;;-145.68;100.00;63218.00;10442909;28;20218;-58
2022/11/28 22:17:39;;;;;;;23.07;13.97;;;;;;;-145.68;100.00;63218.00;10428104;28;20263;-62
2022/11/28 22:22:40;;;;;;;19.83;9.80;;;;;;;-145.68;100.00;63218.00;10430516;28;20251;-58
2022/11/28 22:27:40;;;;;;;25.13;14.90;;;;;;;-145.68;100.00;63218.00;10430068;28;20277;-62
2022/11/28 22:32:40;;;;;;;24.60;14.23;;;;;;;-145.68;100.00;63218.00;10430464;28;20211;-61
2022/11/28 22:37:41;;;;;;;26.57;14.17;;;;;;;-145.68;100.00;63218.00;10447490;28;21069;-60